Time;durP1;ratioP1;P1;durP2;ratioP2;P2;SDS_P1;SDS_P2;PMS_P1;PMS_P2;Temp;Humidity;BMP_temperature;BMP_pressure;BME280_temperature;BME280_humidity;BME280_pressure;Samples;Min_cycle;Max_cycle;Signal;HPM_P1;HPM_P2
2022/01/18 00:01:21;;;;;;;24.60;13.50;;;8.20;99.90;;;;;;5188849;27;20532;-82
2022/01/18 00:03:47;;;;;;;26.17;15.17;;;7.90;99.90;;;;;;5167988;27;20180;-86
2022/01/18 00:06:13;;;;;;;26.37;15.07;;;8.00;99.90;;;;;;5168422;27;20528;-92
2022/01/18 00:08:39;;;;;;;38.47;17.20;;;8.10;99.90;;;;;;5169531;27;20215;-89
2022/01/18 00:11:05;;;;;;;26.87;16.27;;;8.10;99.90;;;;;;5175441;27;20173;-92
2022/01/18 00:13:40;;;;;;;28.97;15.47;;;8.10;99.90;;;;;;5165188;27;20245;-91
2022/01/18 00:18:35;;;;;;;30.93;17.37;;;8.00;99.90;;;;;;5178944;27;20161;-85
2022/01/18 00:23:35;;;;;;;34.27;19.03;;;7.90;99.90;;;;;;5178908;27;20652;-87
2022/01/18 00:26:00;;;;;;;36.10;18.53;;;7.90;99.90;;;;;;5160584;27;20168;-82
2022/01/18 00:28:29;;;;;;;42.07;21.77;;;7.90;99.90;;;;;;5160020;27;20637;-90
2022/01/18 00:39:12;;;;;;;27.80;17.10;;;7.80;99.90;;;;;;5130776;27;20300;-90
2022/01/18 00:41:39;;;;;;;28.37;16.20;;;7.60;99.90;;;;;;5137622;27;20186;-86
2022/01/18 00:44:06;;;;;;;26.37;17.17;;;7.50;99.90;;;;;;5117489;28;20213;-90
2022/01/18 00:46:32;;;;;;;28.70;16.50;;;7.60;99.90;;;;;;5117830;27;20222;-92
2022/01/18 00:49:01;;;;;;;24.53;15.63;;;7.70;99.90;;;;;;5136497;27;20256;-92
2022/01/18 00:51:28;;;;;;;27.57;17.63;;;7.70;99.90;;;;;;5136299;27;20189;-89
2022/01/18 00:53:57;;;;;;;27.23;16.97;;;7.60;99.90;;;;;;5117396;27;20198;-92
2022/01/18 00:56:28;;;;;;;27.17;15.40;;;7.60;99.90;;;;;;5139663;27;20159;-88
2022/01/18 00:58:54;;;;;;;29.40;16.10;;;7.40;99.90;;;;;;5136949;27;20197;-90
2022/01/18 01:01:23;;;;;;;27.97;15.80;;;7.60;99.90;;;;;;5117778;28;20175;-85
2022/01/18 01:03:52;;;;;;;31.30;15.93;;;7.40;99.90;;;;;;5135784;27;20182;-91
2022/01/18 01:06:18;;;;;;;27.83;15.07;;;7.30;99.90;;;;;;5136173;27;20171;-90
2022/01/18 01:08:44;;;;;;;28.57;15.23;;;7.20;99.90;;;;;;5137381;27;20232;-85
2022/01/18 01:11:11;;;;;;;26.83;15.43;;;7.20;99.90;;;;;;5134694;28;20174;-82
2022/01/18 01:13:47;;;;;;;30.13;15.13;;;7.20;99.90;;;;;;5125836;27;20170;-90
2022/01/18 01:16:51;;;;;;;30.07;16.03;;;7.20;99.90;;;;;;5140241;27;20192;-91
2022/01/18 01:46:31;;;;;;;34.53;16.10;;;7.40;99.90;;;;;;5159184;27;20153;-87
2022/01/18 01:48:59;;;;;;;38.23;18.23;;;7.30;99.90;;;;;;5159284;27;20158;-86
2022/01/18 01:51:31;;;;;;;34.33;17.73;;;7.40;99.90;;;;;;5141181;28;20159;-82
2022/01/18 01:54:01;;;;;;;34.27;17.70;;;7.40;99.90;;;;;;5153872;27;20198;-85
2022/01/18 01:56:29;;;;;;;35.67;19.37;;;7.40;99.90;;;;;;5139150;27;20188;-86
2022/01/18 01:59:02;;;;;;;37.97;18.70;;;7.50;99.90;;;;;;5141772;27;20163;-91
2022/01/18 02:01:28;;;;;;;31.00;18.00;;;7.50;99.90;;;;;;5141565;27;20166;-90
2022/01/18 02:03:54;;;;;;;40.73;17.90;;;7.40;99.90;;;;;;5121207;27;20218;-91
2022/01/18 02:06:22;;;;;;;38.20;18.73;;;7.40;99.90;;;;;;5122957;27;20534;-91
2022/01/18 02:08:48;;;;;;;33.27;18.57;;;7.40;99.90;;;;;;5140622;27;20269;-90
2022/01/18 02:11:14;;;;;;;38.37;18.63;;;7.30;99.90;;;;;;5141910;27;20599;-91
2022/01/18 02:13:41;;;;;;;35.33;18.50;;;7.30;99.90;;;;;;5142288;27;20190;-89
2022/01/18 02:24:07;;;;;;;39.43;19.90;;;7.30;99.90;;;;;;5142906;27;20632;-88
2022/01/18 02:26:35;;;;;;;45.13;19.10;;;7.20;99.90;;;;;;5121765;27;20190;-84
2022/01/18 02:29:04;;;;;;;36.70;20.57;;;7.30;99.90;;;;;;5127477;27;20199;-90
2022/01/18 02:31:30;;;;;;;38.93;20.10;;;7.40;99.90;;;;;;5133564;27;20197;-91
2022/01/18 02:34:05;;;;;;;44.57;20.43;;;7.50;99.90;;;;;;5152188;27;20638;-83
2022/01/18 02:36:31;;;;;;;37.73;22.13;;;7.60;99.90;;;;;;5151410;27;20166;-81
2022/01/18 02:38:57;;;;;;;39.77;20.90;;;7.70;99.90;;;;;;5134575;27;20172;-90
2022/01/18 02:41:28;;;;;;;44.20;20.97;;;7.70;99.90;;;;;;5172984;27;20186;-88
2022/01/18 02:44:00;;;;;;;44.53;20.73;;;7.90;99.90;;;;;;5171234;27;20182;-90
2022/01/18 02:46:27;;;;;;;42.60;20.77;;;7.80;99.90;;;;;;5180118;27;20192;-84
2022/01/18 02:48:57;;;;;;;40.37;20.57;;;7.80;99.90;;;;;;5180027;27;20173;-90
2022/01/18 02:51:23;;;;;;;41.40;20.53;;;7.70;99.90;;;;;;5180540;27;20168;-90
2022/01/18 02:54:00;;;;;;;45.50;21.93;;;7.50;99.90;;;;;;5161490;27;20197;-92
2022/01/18 02:56:28;;;;;;;38.47;19.90;;;7.50;99.90;;;;;;5161492;27;20184;-90
2022/01/18 03:04:29;;;;;;;37.13;19.43;;;7.70;99.90;;;;;;5180349;27;20195;-90
2022/01/18 03:06:54;;;;;;;37.17;20.07;;;7.80;99.90;;;;;;5179912;27;20195;-91
2022/01/18 03:09:20;;;;;;;44.13;21.17;;;7.60;99.90;;;;;;5161830;27;20267;-91
2022/01/18 03:11:46;;;;;;;30.67;19.10;;;7.60;99.90;;;;;;5162719;27;20259;-88
2022/01/18 03:14:12;;;;;;;36.83;19.50;;;7.60;99.90;;;;;;5162502;27;20225;-91
2022/01/18 03:16:38;;;;;;;41.60;20.10;;;7.50;99.90;;;;;;5162178;27;20181;-82
2022/01/18 03:19:04;;;;;;;38.10;21.33;;;7.70;99.90;;;;;;5161432;27;20260;-90
2022/01/18 03:21:30;;;;;;;34.33;20.17;;;7.70;99.90;;;;;;5194483;27;20188;-84
2022/01/18 03:24:11;;;;;;;36.30;19.97;;;7.60;99.90;;;;;;5200467;27;20153;-87
2022/01/18 03:29:24;;;;;;;33.67;19.40;;;7.70;99.90;;;;;;5173182;27;20193;-92
2022/01/18 03:31:50;;;;;;;34.77;22.13;;;7.70;99.90;;;;;;5189469;27;20165;-91
2022/01/18 03:34:16;;;;;;;37.07;21.03;;;7.70;99.90;;;;;;5171289;27;20172;-88
2022/01/18 03:36:48;;;;;;;36.67;20.77;;;7.70;99.90;;;;;;5189127;27;20165;-90
2022/01/18 03:39:16;;;;;;;33.77;19.77;;;7.60;99.90;;;;;;5192407;27;20152;-85
2022/01/18 03:41:42;;;;;;;38.20;19.87;;;7.70;99.90;;;;;;5192584;27;20150;-86
2022/01/18 03:44:08;;;;;;;37.17;21.13;;;7.60;99.90;;;;;;5185248;27;20178;-86
2022/01/18 03:46:36;;;;;;;38.83;21.03;;;7.80;99.90;;;;;;5181556;27;20255;-83
2022/01/18 03:52:24;;;;;;;34.90;21.70;;;8.00;99.90;;;;;;5187259;27;20655;-85
2022/01/18 03:54:50;;;;;;;39.23;21.27;;;8.10;99.90;;;;;;5175774;27;20212;-91
2022/01/18 03:57:19;;;;;;;35.27;19.20;;;8.00;99.90;;;;;;5199647;27;20304;-83
2022/01/18 03:59:45;;;;;;;38.10;20.53;;;7.90;99.90;;;;;;5197137;27;20221;-88
2022/01/18 04:02:13;;;;;;;38.60;21.37;;;8.00;99.90;;;;;;5178084;27;20156;-81
2022/01/18 04:04:40;;;;;;;33.63;19.00;;;7.90;99.90;;;;;;5180538;27;20173;-82
2022/01/18 04:07:06;;;;;;;36.73;20.13;;;7.70;99.90;;;;;;5200426;27;20212;-84
2022/01/18 04:09:33;;;;;;;34.13;19.57;;;7.90;99.90;;;;;;5196934;27;20177;-87
2022/01/18 04:11:58;;;;;;;38.10;20.40;;;7.90;99.90;;;;;;5183790;27;20168;-85
2022/01/18 04:14:24;;;;;;;34.17;19.57;;;8.10;99.90;;;;;;5199710;27;20157;-83
2022/01/18 04:28:46;;;;;;;39.23;19.23;;;7.60;99.90;;;;;;5161604;27;20254;-82
2022/01/18 04:31:12;;;;;;;38.20;19.93;;;7.70;99.90;;;;;;5181887;27;20206;-84
2022/01/18 04:33:38;;;;;;;37.77;20.67;;;7.70;99.90;;;;;;5201321;27;20176;-84
2022/01/18 04:36:06;;;;;;;39.97;21.77;;;7.90;99.90;;;;;;5198085;27;20169;-83
2022/01/18 04:38:38;;;;;;;36.00;20.87;;;8.00;99.90;;;;;;5192119;27;20176;-82
2022/01/18 04:41:24;;;;;;;37.10;22.07;;;8.00;99.90;;;;;;5144409;27;20636;-86
2022/01/18 04:49:05;;;;;;;36.57;21.27;;;8.30;99.90;;;;;;5158970;27;20192;-90
2022/01/18 04:51:31;;;;;;;42.77;21.70;;;8.20;99.90;;;;;;5139732;27;20540;-87
2022/01/18 04:53:59;;;;;;;38.77;21.77;;;8.40;99.90;;;;;;5138898;27;20193;-90
2022/01/18 04:59:06;;;;;;;48.20;23.50;;;8.40;99.50;;;;;;5162278;27;20691;-90
2022/01/18 05:01:34;;;;;;;40.10;22.20;;;8.30;99.60;;;;;;5157764;27;20168;-89
2022/01/18 05:04:01;;;;;;;40.97;22.70;;;8.30;99.70;;;;;;5139649;27;20313;-89
2022/01/18 05:06:27;;;;;;;39.17;22.50;;;8.20;99.90;;;;;;5158679;27;20180;-90
2022/01/18 05:08:53;;;;;;;46.00;22.83;;;8.20;99.90;;;;;;5157719;27;20280;-86
2022/01/18 05:11:21;;;;;;;32.10;21.13;;;8.20;99.90;;;;;;5139932;27;20170;-90
2022/01/18 05:14:33;;;;;;;39.10;20.27;;;8.20;99.90;;;;;;5123159;27;20170;-89
2022/01/18 05:19:17;;;;;;;39.47;23.10;;;8.20;99.90;;;;;;5160433;27;20545;-89
2022/01/18 05:24:29;;;;;;;38.67;21.17;;;8.10;99.90;;;;;;5160115;27;20165;-88
2022/01/18 05:26:56;;;;;;;33.10;19.07;;;8.10;99.90;;;;;;5161663;27;20689;-88
2022/01/18 05:29:23;;;;;;;39.07;19.97;;;7.80;99.90;;;;;;5148189;27;20176;-83
2022/01/18 05:31:49;;;;;;;35.90;20.10;;;7.40;99.90;;;;;;5171127;27;20557;-90
2022/01/18 05:34:15;;;;;;;34.60;20.43;;;7.40;99.90;;;;;;5156236;27;20180;-88
2022/01/18 05:36:41;;;;;;;38.90;21.57;;;7.60;99.90;;;;;;5148841;27;20257;-90
2022/01/18 05:39:10;;;;;;;41.23;21.73;;;7.80;99.90;;;;;;5167206;27;20168;-87
2022/01/18 05:41:37;;;;;;;37.20;20.73;;;7.70;99.90;;;;;;5166958;27;20189;-83
2022/01/18 05:44:04;;;;;;;43.63;20.90;;;7.60;99.90;;;;;;5173965;27;20684;-88
2022/01/18 05:46:29;;;;;;;34.03;20.77;;;7.70;99.90;;;;;;5166030;27;20168;-92
2022/01/18 05:48:55;;;;;;;38.07;20.33;;;7.90;99.90;;;;;;5165321;27;20695;-82
2022/01/18 05:51:21;;;;;;;43.50;22.60;;;7.80;99.90;;;;;;5188535;27;20165;-87
2022/01/18 05:53:47;;;;;;;37.60;21.37;;;7.50;99.90;;;;;;5187313;27;20193;-81
2022/01/18 05:56:13;;;;;;;38.93;21.60;;;7.60;99.90;;;;;;5201197;27;20198;-84
2022/01/18 05:58:49;;;;;;;41.90;22.83;;;7.60;99.90;;;;;;5175514;27;20169;-80
2022/01/18 06:01:24;;;;;;;42.13;24.40;;;7.60;99.90;;;;;;5177611;27;20186;-81
2022/01/18 06:04:05;;;;;;;44.47;22.90;;;7.50;99.90;;;;;;5195173;27;20184;-81
2022/01/18 06:09:15;;;;;;;49.37;25.37;;;7.60;99.90;;;;;;5203525;27;20184;-81
2022/01/18 06:11:44;;;;;;;46.70;23.27;;;7.40;99.90;;;;;;5200019;27;20173;-82
2022/01/18 06:14:27;;;;;;;47.63;23.37;;;7.30;99.90;;;;;;5197764;27;20153;-81
2022/01/18 06:16:52;;;;;;;54.33;24.73;;;7.30;99.90;;;;;;5197328;27;20255;-81
2022/01/18 06:19:18;;;;;;;52.20;25.07;;;7.30;99.90;;;;;;5180272;27;20176;-81
2022/01/18 06:21:44;;;;;;;50.37;23.83;;;7.40;99.90;;;;;;5177046;27;20165;-86
2022/01/18 06:24:11;;;;;;;52.63;24.93;;;7.40;99.90;;;;;;5183350;27;20169;-85
2022/01/18 06:26:44;;;;;;;47.37;25.23;;;7.60;99.90;;;;;;5183899;27;20168;-91
2022/01/18 06:29:13;;;;;;;51.80;26.87;;;7.70;99.90;;;;;;5184233;27;20613;-91
2022/01/18 06:31:42;;;;;;;61.10;27.10;;;7.70;99.90;;;;;;5165671;27;20217;-89
2022/01/18 06:34:11;;;;;;;50.33;25.03;;;7.60;99.90;;;;;;5165822;27;20164;-86
2022/01/18 06:36:44;;;;;;;56.07;26.30;;;7.60;99.90;;;;;;5164099;27;20173;-89
2022/01/18 06:39:10;;;;;;;53.23;25.30;;;7.60;99.90;;;;;;5162910;27;20230;-83
2022/01/18 06:41:41;;;;;;;52.10;24.57;;;7.60;99.90;;;;;;5162687;27;20542;-89
2022/01/18 06:44:07;;;;;;;52.43;22.17;;;7.70;99.90;;;;;;5182211;27;20149;-87
2022/01/18 06:46:41;;;;;;;49.33;23.23;;;7.80;99.90;;;;;;5164612;27;20267;-85
2022/01/18 06:49:07;;;;;;;48.27;22.20;;;7.90;99.90;;;;;;5182143;27;20250;-88
2022/01/18 06:51:33;;;;;;;46.00;22.77;;;7.70;99.90;;;;;;5163325;27;20210;-85
2022/01/18 06:54:26;;;;;;;53.47;23.53;;;7.70;99.90;;;;;;5164643;27;20204;-85
2022/01/18 06:56:52;;;;;;;49.27;22.33;;;7.70;99.90;;;;;;5148030;27;20234;-83
2022/01/18 06:59:19;;;;;;;45.23;21.60;;;7.60;99.90;;;;;;5161217;27;20266;-85
2022/01/18 07:01:45;;;;;;;48.73;22.10;;;7.60;99.90;;;;;;5152955;27;20167;-81
2022/01/18 07:04:12;;;;;;;45.10;20.97;;;7.60;99.90;;;;;;5129343;27;20202;-88
2022/01/18 07:07:04;;;;;;;37.87;19.80;;;7.70;99.90;;;;;;5124354;27;20514;-85
2022/01/18 07:09:32;;;;;;;47.73;20.20;;;7.60;99.90;;;;;;5151681;27;20168;-87
2022/01/18 07:12:00;;;;;;;42.03;19.80;;;7.50;99.90;;;;;;5159182;27;20176;-92
2022/01/18 07:14:25;;;;;;;39.17;19.00;;;7.40;99.90;;;;;;5144165;27;20187;-84
2022/01/18 07:16:51;;;;;;;43.97;19.23;;;7.60;99.90;;;;;;5180148;27;20629;-92
2022/01/18 07:19:17;;;;;;;34.47;18.30;;;7.50;99.90;;;;;;5180533;27;20157;-85
2022/01/18 07:21:43;;;;;;;38.53;19.53;;;7.40;99.90;;;;;;5202959;27;20165;-83
2022/01/18 07:24:18;;;;;;;30.77;16.67;;;7.50;99.90;;;;;;5176558;27;20168;-85
2022/01/18 07:27:13;;;;;;;34.50;17.27;;;7.30;99.90;;;;;;5156153;27;20154;-84
2022/01/18 07:29:50;;;;;;;44.73;21.87;;;7.30;99.90;;;;;;5160406;27;20157;-86
2022/01/18 07:32:15;;;;;;;45.27;21.53;;;7.20;99.90;;;;;;5141523;27;20166;-85
2022/01/18 07:34:50;;;;;;;43.60;20.87;;;7.20;99.90;;;;;;5160160;27;20172;-88
2022/01/18 07:37:21;;;;;;;34.60;19.37;;;7.10;99.90;;;;;;5138723;27;20181;-84
2022/01/18 07:39:49;;;;;;;36.63;18.80;;;7.10;99.90;;;;;;5160724;27;20170;-88
2022/01/18 07:42:16;;;;;;;36.27;18.10;;;7.10;99.90;;;;;;5140663;27;20178;-83
2022/01/18 07:44:42;;;;;;;34.90;18.60;;;7.40;99.90;;;;;;5152371;27;20197;-83
2022/01/18 07:47:09;;;;;;;37.13;18.17;;;7.40;99.90;;;;;;5151536;27;20206;-84
2022/01/18 07:49:36;;;;;;;35.57;17.90;;;7.50;99.90;;;;;;5164753;27;20177;-82
2022/01/18 07:52:02;;;;;;;31.60;17.60;;;7.50;99.90;;;;;;5165320;27;20173;-84
2022/01/18 07:54:28;;;;;;;32.70;17.40;;;7.40;99.90;;;;;;5182904;27;20221;-92
2022/01/18 07:57:06;;;;;;;30.33;16.17;;;7.40;99.90;;;;;;5187855;27;20157;-88
2022/01/18 07:59:34;;;;;;;30.87;17.10;;;7.40;99.90;;;;;;5184738;27;20286;-89
2022/01/18 08:02:01;;;;;;;29.20;16.43;;;7.50;99.90;;;;;;5182757;27;20153;-89
2022/01/18 08:04:27;;;;;;;31.37;16.00;;;7.30;99.90;;;;;;5170978;27;20233;-83
2022/01/18 08:06:53;;;;;;;31.63;15.97;;;7.30;99.90;;;;;;5194240;27;20160;-85
2022/01/18 08:09:22;;;;;;;29.37;13.67;;;7.30;99.90;;;;;;5200357;27;20180;-82
2022/01/18 08:11:47;;;;;;;25.37;14.20;;;7.10;99.90;;;;;;5177486;27;20665;-83
2022/01/18 08:14:20;;;;;;;32.70;16.17;;;7.00;99.90;;;;;;5188814;27;20240;-91
2022/01/18 08:17:00;;;;;;;29.73;15.20;;;7.00;99.90;;;;;;5165848;27;20177;-92
2022/01/18 08:19:28;;;;;;;35.53;17.13;;;7.00;99.90;;;;;;5166342;27;20552;-91
2022/01/18 08:22:03;;;;;;;33.07;15.93;;;7.10;99.90;;;;;;5148251;27;20192;-81
2022/01/18 08:24:30;;;;;;;33.63;17.33;;;7.10;99.90;;;;;;5176866;27;20153;-90
2022/01/18 08:26:56;;;;;;;41.43;19.87;;;7.10;99.90;;;;;;5177792;27;20165;-89
2022/01/18 08:29:23;;;;;;;45.60;18.97;;;7.10;99.90;;;;;;5152144;27;20199;-89
2022/01/18 08:32:00;;;;;;;44.30;19.63;;;7.20;99.90;;;;;;5148420;27;20202;-89
2022/01/18 08:34:27;;;;;;;40.70;18.43;;;7.40;99.90;;;;;;5155729;27;20195;-89
2022/01/18 08:36:55;;;;;;;63.37;20.57;;;7.20;99.90;;;;;;5173087;27;20177;-89
2022/01/18 08:39:21;;;;;;;55.07;21.37;;;7.50;99.90;;;;;;5136316;27;20188;-90
2022/01/18 08:41:46;;;;;;;59.53;23.37;;;7.60;99.90;;;;;;5151249;27;20529;-90
2022/01/18 08:44:12;;;;;;;52.00;21.40;;;7.60;99.90;;;;;;5134146;27;20169;-90
2022/01/18 08:46:42;;;;;;;56.63;20.20;;;7.60;99.90;;;;;;5149105;27;20172;-92
2022/01/18 08:49:08;;;;;;;53.63;19.80;;;7.70;99.90;;;;;;5148383;27;20190;-89
2022/01/18 08:51:38;;;;;;;61.47;20.67;;;7.80;99.90;;;;;;5133209;27;20173;-89
2022/01/18 08:54:07;;;;;;;57.73;20.67;;;7.80;99.90;;;;;;5168465;27;20228;-89
2022/01/18 08:56:32;;;;;;;56.37;20.50;;;7.90;99.90;;;;;;5166508;27;20189;-89
2022/01/18 08:58:58;;;;;;;60.30;20.20;;;7.90;99.90;;;;;;5147408;27;20176;-89
2022/01/18 09:01:24;;;;;;;39.00;18.63;;;7.80;99.90;;;;;;5140725;27;20234;-88
2022/01/18 09:03:50;;;;;;;58.10;20.10;;;7.80;99.90;;;;;;5139490;27;20186;-87
2022/01/18 09:06:23;;;;;;;43.73;17.40;;;7.70;99.90;;;;;;5123781;27;20185;-89
2022/01/18 09:08:56;;;;;;;47.90;18.57;;;7.70;99.90;;;;;;5141289;27;20221;-87
2022/01/18 09:11:24;;;;;;;47.00;18.77;;;7.80;99.90;;;;;;5158289;27;20199;-88
2022/01/18 09:13:51;;;;;;;50.93;19.43;;;7.90;99.90;;;;;;5154232;27;20238;-84
2022/01/18 09:16:20;;;;;;;43.37;19.10;;;8.00;99.90;;;;;;5146164;27;20189;-87
2022/01/18 09:18:47;;;;;;;44.00;19.57;;;8.20;99.90;;;;;;5121628;28;20251;-81
2022/01/18 09:21:13;;;;;;;56.73;21.13;;;8.40;99.90;;;;;;5121831;28;20189;-83
2022/01/18 09:23:39;;;;;;;55.53;20.80;;;8.40;99.90;;;;;;5175116;27;20169;-86
2022/01/18 09:26:06;;;;;;;47.57;19.43;;;8.50;99.90;;;;;;5183781;27;20534;-87
2022/01/18 09:28:32;;;;;;;47.03;17.97;;;8.60;99.90;;;;;;5161400;27;20201;-81
2022/01/18 09:31:00;;;;;;;44.80;19.33;;;8.60;99.90;;;;;;5144865;27;20229;-92
2022/01/18 09:33:26;;;;;;;44.23;19.67;;;8.70;99.90;;;;;;5169756;27;20157;-86
2022/01/18 09:35:52;;;;;;;43.57;20.17;;;8.80;99.90;;;;;;5131134;27;20185;-89
2022/01/18 09:38:17;;;;;;;47.73;20.10;;;9.00;99.90;;;;;;5140250;27;20589;-87
2022/01/18 09:40:45;;;;;;;48.47;21.90;;;9.00;99.90;;;;;;5160212;27;20158;-86
2022/01/18 09:43:13;;;;;;;56.63;28.00;;;9.10;99.90;;;;;;5149341;27;20177;-86
2022/01/18 09:45:41;;;;;;;66.03;25.23;;;9.10;99.90;;;;;;5165186;27;20165;-85
2022/01/18 09:48:08;;;;;;;54.43;24.07;;;9.00;99.90;;;;;;5150116;27;20208;-89
2022/01/18 09:50:36;;;;;;;65.77;26.77;;;9.20;99.90;;;;;;5159940;27;20207;-81
2022/01/18 09:53:04;;;;;;;67.20;26.27;;;9.20;99.90;;;;;;5124653;27;20634;-82
2022/01/18 09:55:31;;;;;;;63.10;29.53;;;9.30;99.90;;;;;;5159067;27;20252;-83
2022/01/18 09:58:01;;;;;;;57.00;27.57;;;9.30;99.80;;;;;;5157835;27;20169;-82
2022/01/18 10:00:30;;;;;;;67.17;28.47;;;9.20;99.90;;;;;;5158915;27;20161;-84
2022/01/18 10:02:56;;;;;;;71.27;29.47;;;9.20;99.90;;;;;;5139418;27;20174;-86
2022/01/18 10:05:25;;;;;;;74.93;29.17;;;9.30;99.80;;;;;;5158596;27;20177;-82
2022/01/18 10:08:16;;;;;;;71.80;29.70;;;9.30;99.40;;;;;;5143956;27;20299;-81
2022/01/18 10:10:47;;;;;;;67.17;29.57;;;9.30;99.50;;;;;;5177349;27;20133;-86
2022/01/18 10:13:22;;;;;;;76.43;28.97;;;9.30;99.20;;;;;;5176226;27;20260;-80
2022/01/18 10:16:00;;;;;;;75.87;28.23;;;9.30;98.80;;;;;;5151469;27;20169;-83
2022/01/18 10:18:55;;;;;;;65.70;27.87;;;9.40;98.40;;;;;;5168802;27;20158;-81
2022/01/18 10:21:35;;;;;;;59.97;25.13;;;9.40;98.30;;;;;;5169526;27;20256;-79
2022/01/18 10:24:25;;;;;;;55.63;26.97;;;9.40;98.80;;;;;;5173976;27;20154;-79
2022/01/18 10:26:54;;;;;;;60.10;25.73;;;9.50;99.10;;;;;;5171696;27;20594;-80
2022/01/18 10:29:27;;;;;;;58.27;26.93;;;9.50;99.10;;;;;;5139449;27;20182;-80
2022/01/18 10:37:17;;;;;;;57.10;26.30;;;9.50;99.30;;;;;;5175547;27;20189;-80
2022/01/18 10:39:48;;;;;;;61.57;27.47;;;9.50;99.40;;;;;;5168750;27;20161;-84
2022/01/18 10:42:44;;;;;;;43.77;19.73;;;9.60;99.20;;;;;;5167210;27;20199;-90
2022/01/18 10:45:38;;;;;;;36.47;19.13;;;9.60;97.90;;;;;;5148341;27;20165;-82
2022/01/18 10:48:16;;;;;;;42.10;17.50;;;9.70;96.90;;;;;;5153972;27;20566;-90
2022/01/18 10:50:47;;;;;;;42.07;17.27;;;9.70;96.90;;;;;;5158285;27;20195;-82
2022/01/18 10:53:21;;;;;;;38.43;18.13;;;9.80;96.70;;;;;;5178095;27;20175;-81
2022/01/18 10:55:51;;;;;;;43.97;19.23;;;9.70;96.60;;;;;;5153971;27;20260;-88
2022/01/18 10:58:23;;;;;;;56.90;23.87;;;9.70;96.90;;;;;;5163035;27;20157;-89
2022/01/18 11:00:49;;;;;;;44.83;22.40;;;9.80;96.50;;;;;;5160786;27;20169;-85
2022/01/18 11:03:15;;;;;;;46.10;22.67;;;9.90;95.70;;;;;;5140658;27;20295;-86
2022/01/18 11:05:43;;;;;;;43.93;21.10;;;10.10;95.00;;;;;;5159223;27;20177;-82
2022/01/18 11:08:14;;;;;;;46.87;21.33;;;9.70;94.60;;;;;;5143378;27;20235;-87
2022/01/18 11:10:43;;;;;;;43.77;21.53;;;9.90;95.10;;;;;;5150756;27;20177;-80
2022/01/18 11:13:23;;;;;;;47.90;21.07;;;9.60;95.20;;;;;;5168920;27;20176;-81
2022/01/18 11:15:53;;;;;;;44.33;20.03;;;9.60;96.20;;;;;;5154680;27;20598;-81
2022/01/18 11:18:29;;;;;;;24.30;10.37;;;9.70;95.90;;;;;;5169623;27;20633;-79
2022/01/18 11:20:56;;;;;;;25.60;9.67;;;9.40;94.80;;;;;;5151825;27;20177;-81
2022/01/18 11:23:24;;;;;;;24.13;9.53;;;9.30;93.50;;;;;;5169495;27;20237;-83
2022/01/18 11:26:02;;;;;;;28.10;10.47;;;9.10;93.50;;;;;;5173989;27;20161;-80
2022/01/18 11:28:34;;;;;;;26.20;9.70;;;9.10;94.10;;;;;;5163269;27;20653;-81
2022/01/18 11:31:40;;;;;;;21.20;8.53;;;9.00;94.40;;;;;;5163983;27;20187;-84
2022/01/18 11:37:33;;;;;;;28.40;10.30;;;9.00;94.10;;;;;;5162796;27;20199;-84
2022/01/18 11:40:27;;;;;;;17.00;7.93;;;9.00;94.20;;;;;;5165374;27;20172;-82
2022/01/18 11:42:55;;;;;;;17.87;7.33;;;9.10;94.00;;;;;;5148554;27;20180;-82
2022/01/18 11:45:24;;;;;;;20.70;9.97;;;9.10;92.70;;;;;;5164262;27;20486;-86
2022/01/18 11:48:03;;;;;;;18.33;6.60;;;9.20;92.90;;;;;;5181943;27;20196;-90
2022/01/18 11:50:32;;;;;;;16.90;6.23;;;9.30;91.70;;;;;;5182481;27;20180;-83
2022/01/18 11:53:23;;;;;;;11.97;4.63;;;9.20;90.50;;;;;;5165468;27;20218;-81
2022/01/18 11:55:55;;;;;;;13.43;4.13;;;9.40;87.60;;;;;;5164044;27;20269;-84
2022/01/18 11:58:21;;;;;;;16.07;4.23;;;9.40;83.70;;;;;;5166569;27;20648;-84
2022/01/18 12:00:57;;;;;;;14.00;4.00;;;9.50;82.90;;;;;;5166484;27;20279;-84
2022/01/18 12:03:27;;;;;;;13.00;3.80;;;9.90;78.40;;;;;;5163676;27;20290;-84
2022/01/18 12:05:59;;;;;;;11.07;3.60;;;10.00;74.20;;;;;;5181873;27;20676;-87
2022/01/18 12:08:33;;;;;;;12.47;4.83;;;10.10;72.40;;;;;;5161911;27;20664;-89
2022/01/18 12:11:00;;;;;;;17.83;8.43;;;10.20;68.10;;;;;;5163820;27;20615;-80
2022/01/18 12:13:28;;;;;;;19.10;10.47;;;10.50;65.70;;;;;;5183497;27;20172;-85
2022/01/18 12:15:57;;;;;;;16.40;5.83;;;10.10;65.70;;;;;;5185637;27;20153;-81
2022/01/18 12:18:25;;;;;;;15.90;4.23;;;10.00;66.90;;;;;;5177135;27;20167;-80
2022/01/18 12:20:57;;;;;;;11.30;3.97;;;10.20;64.00;;;;;;5165091;27;20180;-82
2022/01/18 12:23:29;;;;;;;13.23;3.67;;;10.10;61.90;;;;;;5182712;27;20196;-90
2022/01/18 12:26:14;;;;;;;13.47;4.20;;;10.40;62.60;;;;;;5164596;27;20164;-90
2022/01/18 12:34:31;;;;;;;13.20;4.07;;;11.00;50.70;;;;;;5164431;27;20161;-79
2022/01/18 12:37:07;;;;;;;12.43;4.00;;;11.20;47.10;;;;;;5162995;27;20162;-82
2022/01/18 12:39:54;;;;;;;9.17;3.50;;;11.00;44.60;;;;;;5161830;27;20188;-80
2022/01/18 12:45:10;;;;;;;12.03;4.50;;;11.10;42.60;;;;;;5170943;27;20158;-83
2022/01/18 12:47:55;;;;;;;11.33;4.20;;;11.20;43.10;;;;;;5167650;27;20224;-80
2022/01/18 12:50:25;;;;;;;15.07;4.47;;;11.20;44.00;;;;;;5172875;27;20162;-84
2022/01/18 12:53:14;;;;;;;13.40;3.47;;;11.20;43.50;;;;;;5130753;27;20201;-81
2022/01/18 12:55:52;;;;;;;13.97;3.40;;;11.20;43.50;;;;;;5158640;27;20161;-85
2022/01/18 12:58:32;;;;;;;10.97;2.83;;;10.90;45.70;;;;;;5140233;27;20165;-91
2022/01/18 13:01:06;;;;;;;8.90;3.10;;;10.70;47.60;;;;;;5167369;27;20150;-77
2022/01/18 13:03:37;;;;;;;10.93;3.17;;;11.00;50.10;;;;;;5173766;27;20201;-79
2022/01/18 13:06:09;;;;;;;9.77;2.80;;;10.80;49.20;;;;;;5173426;27;20206;-86
2022/01/18 13:08:54;;;;;;;9.53;3.03;;;10.80;50.70;;;;;;5169755;27;20197;-88
2022/01/18 13:12:08;;;;;;;10.93;3.27;;;10.70;47.30;;;;;;5143783;27;20169;-86
2022/01/18 13:14:52;;;;;;;11.13;3.90;;;10.60;48.10;;;;;;5161589;27;20162;-86
2022/01/18 13:23:48;;;;;;;10.37;3.80;;;11.10;44.40;;;;;;5156895;27;20188;-81
2022/01/18 13:26:26;;;;;;;13.53;3.57;;;11.10;41.20;;;;;;5153835;27;20184;-79
2022/01/18 13:28:51;;;;;;;9.80;3.60;;;11.10;42.60;;;;;;5157351;27;20249;-78
2022/01/18 13:31:23;;;;;;;16.17;4.43;;;10.80;47.70;;;;;;5138197;27;20259;-79
2022/01/18 13:33:55;;;;;;;18.03;5.40;;;10.60;49.60;;;;;;5136942;27;20169;-80
2022/01/18 13:36:23;;;;;;;10.60;4.53;;;10.60;52.50;;;;;;5136997;27;20172;-80
2022/01/18 13:38:50;;;;;;;12.93;4.33;;;10.70;54.80;;;;;;5155164;27;20249;-80
2022/01/18 13:41:17;;;;;;;12.40;3.67;;;10.30;55.20;;;;;;5154705;27;20161;-81
2022/01/18 13:43:44;;;;;;;8.93;4.00;;;10.10;58.20;;;;;;5155281;27;20245;-80
2022/01/18 13:46:25;;;;;;;14.03;4.03;;;10.20;58.90;;;;;;5136405;27;20174;-81
2022/01/18 13:49:07;;;;;;;14.27;4.40;;;10.40;58.70;;;;;;5154200;27;20209;-80
2022/01/18 13:51:33;;;;;;;14.13;4.00;;;10.70;54.10;;;;;;5136134;27;20180;-83
2022/01/18 13:54:06;;;;;;;9.73;4.07;;;10.70;52.40;;;;;;5159221;27;20727;-81
2022/01/18 13:56:32;;;;;;;11.47;4.30;;;10.40;54.10;;;;;;5159226;27;20225;-80
2022/01/18 13:59:06;;;;;;;9.07;3.80;;;10.50;55.50;;;;;;5141020;27;20177;-80
2022/01/18 14:01:36;;;;;;;14.57;3.77;;;10.50;52.80;;;;;;5159051;27;20169;-84
2022/01/18 14:04:18;;;;;;;11.47;3.77;;;10.00;52.50;;;;;;5144575;27;20189;-80
2022/01/18 14:06:45;;;;;;;12.13;3.80;;;10.20;55.40;;;;;;5154859;27;20199;-83
2022/01/18 14:09:13;;;;;;;16.03;4.30;;;10.30;54.20;;;;;;5152682;27;20213;-84
2022/01/18 14:11:47;;;;;;;12.57;4.10;;;10.60;51.60;;;;;;5160922;27;20162;-89
2022/01/18 14:14:24;;;;;;;10.10;3.83;;;10.70;48.40;;;;;;5144029;27;20180;-88
2022/01/18 14:16:56;;;;;;;10.77;4.47;;;10.60;46.00;;;;;;5161760;27;20572;-81
2022/01/18 14:19:37;;;;;;;11.83;3.90;;;10.60;48.40;;;;;;5161364;27;20188;-89
2022/01/18 14:22:13;;;;;;;9.07;3.87;;;10.50;49.90;;;;;;5157273;27;20260;-80
2022/01/18 14:24:44;;;;;;;10.53;3.83;;;10.30;48.90;;;;;;5167387;27;20228;-89
2022/01/18 14:27:28;;;;;;;15.60;4.37;;;10.50;50.50;;;;;;5190429;27;20624;-88
2022/01/18 14:29:59;;;;;;;12.87;4.93;;;10.80;48.60;;;;;;5161926;27;20173;-81
2022/01/18 14:32:32;;;;;;;13.40;4.00;;;11.00;45.30;;;;;;5161332;27;20609;-84
2022/01/18 14:35:00;;;;;;;10.23;3.77;;;11.10;42.40;;;;;;5139899;27;20176;-79
2022/01/18 14:37:42;;;;;;;11.60;4.50;;;10.80;41.60;;;;;;5158817;27;20168;-83
2022/01/18 14:40:12;;;;;;;11.23;4.17;;;10.80;43.20;;;;;;5159381;27;20210;-81
2022/01/18 14:43:01;;;;;;;10.60;4.00;;;10.50;43.70;;;;;;5159378;27;20177;-83
2022/01/18 14:48:03;;;;;;;10.40;4.07;;;10.20;49.50;;;;;;5140356;27;20237;-80
2022/01/18 14:50:29;;;;;;;12.73;4.40;;;10.20;51.20;;;;;;5141403;27;20189;-80